Time;durP1;ratioP1;P1;durP2;ratioP2;P2;SDS_P1;SDS_P2;PMS_P1;PMS_P2;Temp;Humidity;BMP_temperature;BMP_pressure;BME280_temperature;BME280_humidity;BME280_pressure;Samples;Min_cycle;Max_cycle;Signal;HPM_P1;HPM_P2
2020/12/21 00:00:36;;;;;;;6.67;2.00;;;7.10;99.90;;;;;;5034935;28;20544;-86
2020/12/21 00:03:04;;;;;;;20.03;4.00;;;7.10;99.90;;;;;;5035679;28;20540;-86
2020/12/21 00:05:32;;;;;;;6.17;2.07;;;7.20;99.90;;;;;;5034883;28;20449;-87
2020/12/21 00:08:03;;;;;;;10.70;2.37;;;7.10;99.90;;;;;;5035282;28;20445;-87
2020/12/21 00:10:30;;;;;;;10.30;2.53;;;7.10;99.90;;;;;;5035095;28;20498;-87
2020/12/21 00:12:58;;;;;;;12.60;3.97;;;7.10;99.90;;;;;;5034911;28;20833;-87
2020/12/21 00:15:24;;;;;;;7.07;2.27;;;7.10;99.90;;;;;;5034546;28;20531;-87
2020/12/21 00:17:50;;;;;;;11.90;3.70;;;7.00;99.90;;;;;;5035613;28;20457;-87
2020/12/21 00:20:18;;;;;;;5.40;2.00;;;7.10;99.90;;;;;;5036190;28;20539;-87
2020/12/21 00:22:44;;;;;;;5.93;2.63;;;7.00;99.90;;;;;;5036303;28;20509;-86
2020/12/21 00:25:11;;;;;;;10.40;3.20;;;7.10;99.90;;;;;;5036402;28;20514;-87
2020/12/21 00:27:37;;;;;;;14.17;2.87;;;7.00;99.90;;;;;;5052229;28;20451;-87
2020/12/21 00:33:31;;;;;;;14.53;2.43;;;7.10;99.90;;;;;;5044406;28;20771;-86
2020/12/21 00:35:59;;;;;;;13.73;3.03;;;7.10;99.90;;;;;;5035826;28;20457;-87
2020/12/21 00:38:25;;;;;;;11.87;2.40;;;7.00;99.90;;;;;;5035169;28;20972;-87
2020/12/21 00:40:52;;;;;;;13.13;2.80;;;7.00;99.90;;;;;;5035283;28;20461;-87
2020/12/21 00:43:18;;;;;;;15.97;3.60;;;7.00;99.90;;;;;;5037977;28;20544;-87
2020/12/21 00:45:44;;;;;;;6.57;2.23;;;7.00;99.90;;;;;;5048044;28;20501;-86
2020/12/21 00:48:11;;;;;;;9.30;2.50;;;7.00;99.90;;;;;;5040126;28;20449;-86
2020/12/21 00:50:37;;;;;;;8.40;2.40;;;6.90;99.90;;;;;;5034328;28;20502;-87
2020/12/21 00:53:04;;;;;;;6.20;1.97;;;6.90;99.90;;;;;;5034138;28;20539;-87
2020/12/21 00:55:30;;;;;;;9.77;3.00;;;6.90;99.90;;;;;;5033900;28;20486;-87
2020/12/21 00:57:57;;;;;;;7.30;2.97;;;6.90;99.90;;;;;;5045595;28;20546;-87
2020/12/21 01:00:23;;;;;;;13.43;2.50;;;6.90;99.90;;;;;;5053820;28;20976;-87
2020/12/21 01:02:50;;;;;;;5.97;2.40;;;6.90;99.90;;;;;;5036045;28;20571;-87
2020/12/21 01:05:18;;;;;;;9.90;3.60;;;6.80;99.90;;;;;;5034383;28;20546;-87
2020/12/21 01:07:45;;;;;;;5.50;2.50;;;6.90;99.90;;;;;;5034501;28;20787;-87
2020/12/21 01:10:12;;;;;;;4.87;2.00;;;6.90;99.90;;;;;;5034323;28;20540;-87
2020/12/21 01:12:38;;;;;;;8.97;2.60;;;6.90;99.90;;;;;;5033690;28;20583;-87
2020/12/21 01:15:05;;;;;;;7.50;2.57;;;6.90;99.90;;;;;;5034162;28;20543;-87
2020/12/21 01:17:34;;;;;;;11.27;2.60;;;6.90;99.90;;;;;;5034183;28;20506;-86
2020/12/21 01:20:00;;;;;;;9.90;3.67;;;6.90;99.90;;;;;;5034398;28;20449;-87
2020/12/21 01:22:27;;;;;;;5.07;2.27;;;6.90;99.90;;;;;;5034035;28;20441;-87
2020/12/21 01:24:53;;;;;;;8.07;2.67;;;6.90;99.90;;;;;;5033656;28;20463;-87
2020/12/21 01:27:20;;;;;;;5.07;2.43;;;6.80;99.90;;;;;;5034108;28;20449;-89
2020/12/21 01:29:46;;;;;;;11.13;2.83;;;6.70;99.90;;;;;;5033617;28;20999;-87
2020/12/21 01:32:13;;;;;;;9.03;2.70;;;6.80;99.90;;;;;;5033811;28;21030;-86
2020/12/21 01:34:39;;;;;;;9.17;2.70;;;6.80;99.90;;;;;;5033636;28;20934;-86
2020/12/21 01:37:06;;;;;;;10.03;2.20;;;6.80;99.90;;;;;;5033940;28;20475;-86
2020/12/21 01:39:32;;;;;;;7.90;2.30;;;6.80;99.90;;;;;;5033647;28;20451;-86
2020/12/21 01:41:58;;;;;;;8.40;2.20;;;6.80;99.90;;;;;;5033902;28;20460;-87
2020/12/21 01:44:26;;;;;;;9.53;3.20;;;6.80;99.90;;;;;;5033480;28;20472;-87
2020/12/21 01:46:52;;;;;;;9.47;2.77;;;6.80;99.90;;;;;;5034063;28;20925;-87
2020/12/21 01:49:22;;;;;;;9.93;2.80;;;6.70;99.90;;;;;;5033994;28;20449;-86
2020/12/21 01:51:48;;;;;;;5.37;2.73;;;6.70;99.90;;;;;;5033968;28;20583;-86
2020/12/21 01:54:15;;;;;;;9.70;2.97;;;6.60;99.90;;;;;;5034075;28;20622;-85
2020/12/21 01:56:43;;;;;;;6.80;2.20;;;6.70;99.90;;;;;;5033835;28;20448;-88
2020/12/21 01:59:10;;;;;;;9.77;2.80;;;6.60;99.90;;;;;;5033642;28;20448;-86
2020/12/21 02:01:38;;;;;;;7.13;2.47;;;6.50;99.90;;;;;;5033332;28;20547;-86
2020/12/21 02:04:04;;;;;;;7.87;2.87;;;6.40;99.90;;;;;;5033206;28;20457;-86
2020/12/21 02:06:31;;;;;;;9.70;3.67;;;6.40;99.90;;;;;;5036881;28;20460;-86
2020/12/21 02:08:57;;;;;;;11.33;2.50;;;6.50;99.90;;;;;;5037140;28;20484;-86
2020/12/21 02:11:25;;;;;;;8.17;2.23;;;6.50;99.90;;;;;;5037099;28;20557;-87
2020/12/21 02:13:51;;;;;;;5.67;2.17;;;6.40;99.90;;;;;;5037280;28;20999;-86
2020/12/21 02:16:17;;;;;;;6.90;2.10;;;6.40;99.90;;;;;;5049831;28;20455;-86
2020/12/21 02:18:45;;;;;;;6.27;3.27;;;6.40;99.90;;;;;;5050915;28;20463;-86
2020/12/21 02:21:12;;;;;;;7.40;2.60;;;6.30;99.90;;;;;;5037136;28;20457;-86
2020/12/21 02:23:38;;;;;;;8.50;2.90;;;6.40;99.90;;;;;;5036509;28;20459;-86
2020/12/21 02:26:05;;;;;;;9.23;2.73;;;6.40;99.90;;;;;;5036937;28;20444;-86
2020/12/21 02:28:31;;;;;;;8.93;2.77;;;6.40;99.90;;;;;;5037078;28;20539;-86
2020/12/21 02:30:57;;;;;;;10.83;2.70;;;6.30;99.90;;;;;;5036930;28;20537;-86
2020/12/21 02:33:24;;;;;;;8.53;2.20;;;6.30;99.90;;;;;;5051835;28;20535;-87
2020/12/21 02:35:50;;;;;;;7.10;2.80;;;6.30;99.90;;;;;;5056818;28;20553;-86
2020/12/21 02:38:18;;;;;;;7.80;3.23;;;6.30;99.90;;;;;;5057275;28;20450;-86
2020/12/21 02:40:45;;;;;;;10.27;2.40;;;6.30;99.90;;;;;;5045228;28;20510;-86
2020/12/21 02:43:11;;;;;;;9.00;2.10;;;6.30;99.90;;;;;;5037062;28;20548;-86
2020/12/21 02:45:37;;;;;;;5.43;2.60;;;6.20;99.90;;;;;;5056409;28;20475;-87
2020/12/21 02:48:04;;;;;;;7.07;2.20;;;6.20;99.90;;;;;;5056880;28;20456;-86
2020/12/21 02:50:30;;;;;;;10.10;2.43;;;6.10;99.90;;;;;;5056243;28;20938;-86
2020/12/21 02:52:56;;;;;;;6.43;2.67;;;6.10;99.90;;;;;;5056698;28;20965;-86
2020/12/21 02:55:24;;;;;;;6.93;2.20;;;6.00;99.90;;;;;;5056450;28;20462;-93
2020/12/21 02:57:50;;;;;;;6.20;1.70;;;6.00;99.90;;;;;;5056366;28;20952;-86
2020/12/21 03:00:17;;;;;;;9.23;3.30;;;6.00;99.90;;;;;;5057926;28;20440;-86
2020/12/21 03:03:07;;;;;;;7.83;2.13;;;6.00;99.90;;;;;;5056878;28;20447;-86
2020/12/21 03:09:04;;;;;;;6.50;2.40;;;5.80;99.90;;;;;;5057006;28;20378;-87
2020/12/21 03:15:05;;;;;;;6.40;2.00;;;5.80;99.90;;;;;;5056908;28;20932;-88
2020/12/21 03:20:54;;;;;;;8.77;2.60;;;6.00;99.90;;;;;;5056684;28;20391;-86
2020/12/21 03:30:38;;;;;;;10.70;2.07;;;5.90;99.90;;;;;;5056848;28;20431;-87
2020/12/21 03:41:17;;;;;;;9.50;2.80;;;6.10;99.90;;;;;;5054806;28;20237;-86
2020/12/21 03:43:43;;;;;;;3.37;1.70;;;6.10;99.90;;;;;;5055716;28;20567;-87
2020/12/21 03:46:10;;;;;;;7.20;1.97;;;6.20;99.90;;;;;;5056787;28;20437;-86
2020/12/21 03:48:37;;;;;;;7.73;2.17;;;6.30;99.90;;;;;;5056045;28;20512;-87
2020/12/21 03:51:03;;;;;;;11.60;2.40;;;6.40;99.90;;;;;;5056742;28;20485;-87
2020/12/21 03:53:32;;;;;;;5.50;1.90;;;6.40;99.90;;;;;;5056937;28;20435;-87
2020/12/21 03:59:30;;;;;;;13.80;2.33;;;6.30;99.90;;;;;;5056026;28;20396;-86
2020/12/21 04:05:23;;;;;;;4.20;1.70;;;6.10;99.90;;;;;;5055860;28;20384;-86
2020/12/21 04:07:49;;;;;;;12.23;2.33;;;6.00;99.90;;;;;;5056746;28;20439;-86
2020/12/21 04:10:16;;;;;;;6.57;2.30;;;5.90;99.90;;;;;;5055342;28;20464;-86
2020/12/21 04:12:43;;;;;;;7.40;2.30;;;5.80;99.90;;;;;;5055776;28;20585;-87
2020/12/21 04:15:10;;;;;;;6.10;1.80;;;5.70;99.90;;;;;;5056074;28;20897;-86
2020/12/21 04:28:10;;;;;;;8.23;1.90;;;5.40;99.90;;;;;;5068388;28;20419;-86
2020/12/21 04:31:15;;;;;;;7.43;1.80;;;5.40;99.90;;;;;;5075887;28;20867;-87
2020/12/21 04:33:41;;;;;;;9.57;1.60;;;5.30;99.90;;;;;;5076334;28;20456;-86
2020/12/21 04:36:09;;;;;;;11.53;2.70;;;5.40;99.90;;;;;;5075504;28;20545;-87
2020/12/21 04:38:38;;;;;;;6.60;2.17;;;5.40;99.90;;;;;;5075781;28;20450;-88
2020/12/21 04:41:04;;;;;;;12.17;2.60;;;5.50;99.90;;;;;;5090040;28;20493;-86
2020/12/21 04:43:32;;;;;;;4.60;1.60;;;5.60;99.90;;;;;;5096112;28;20732;-86
2020/12/21 04:49:30;;;;;;;6.97;2.13;;;5.60;99.90;;;;;;5094062;28;20437;-86
2020/12/21 04:55:20;;;;;;;6.13;1.30;;;5.90;99.90;;;;;;5095245;28;20447;-87
2020/12/21 04:57:54;;;;;;;7.93;1.90;;;5.90;99.90;;;;;;5094856;28;20449;-86
2020/12/21 05:03:43;;;;;;;12.00;2.10;;;5.90;99.90;;;;;;5058348;28;20892;-86
2020/12/21 05:06:10;;;;;;;3.93;1.47;;;5.80;99.90;;;;;;5094665;28;20544;-86
2020/12/21 05:08:36;;;;;;;7.90;1.77;;;5.80;99.90;;;;;;5078689;28;20904;-85
2020/12/21 05:11:04;;;;;;;6.50;1.97;;;5.80;99.90;;;;;;5094583;28;20487;-85
2020/12/21 05:13:32;;;;;;;5.90;1.70;;;5.70;99.90;;;;;;5094444;28;20449;-85
2020/12/21 05:16:01;;;;;;;15.50;1.63;;;5.70;99.90;;;;;;5094539;28;20460;-85
2020/12/21 05:18:32;;;;;;;6.53;1.87;;;5.70;99.90;;;;;;5079749;28;20461;-85
2020/12/21 05:20:59;;;;;;;5.33;1.60;;;5.70;99.90;;;;;;5074472;28;20442;-85
2020/12/21 05:23:26;;;;;;;5.70;1.93;;;5.70;99.90;;;;;;5068610;28;20499;-85
2020/12/21 05:26:10;;;;;;;6.90;1.50;;;5.70;99.90;;;;;;5067598;28;20446;-86
2020/12/21 05:28:39;;;;;;;5.00;1.90;;;5.70;99.90;;;;;;5074590;28;20773;-87
2020/12/21 05:31:08;;;;;;;9.17;2.30;;;5.70;99.90;;;;;;5074345;28;20489;-87
2020/12/21 05:33:39;;;;;;;11.63;2.20;;;5.60;99.90;;;;;;5073422;28;20453;-85
2020/12/21 05:36:08;;;;;;;5.23;1.53;;;5.80;99.90;;;;;;5073178;28;20466;-85
2020/12/21 05:38:34;;;;;;;10.13;1.70;;;5.90;99.90;;;;;;5073551;28;20483;-86
2020/12/21 05:41:09;;;;;;;4.23;1.73;;;6.00;99.90;;;;;;5093622;28;20481;-86
2020/12/21 05:43:56;;;;;;;6.03;2.37;;;6.00;99.90;;;;;;5099607;28;20443;-86
2020/12/21 05:53:12;;;;;;;11.50;2.07;;;6.00;99.90;;;;;;5098780;28;20444;-86
2020/12/21 06:23:32;;;;;;;8.33;2.17;;;6.40;99.90;;;;;;5096552;28;20464;-86
2020/12/21 06:49:16;;;;;;;9.73;2.17;;;6.60;99.90;;;;;;5064292;28;20467;-86
2020/12/21 06:51:45;;;;;;;3.93;1.60;;;6.70;99.90;;;;;;5054450;28;20582;-86
2020/12/21 06:54:13;;;;;;;9.70;1.70;;;6.70;99.90;;;;;;5057029;28;20446;-86
2020/12/21 06:56:40;;;;;;;4.23;1.53;;;6.60;99.90;;;;;;5056443;28;20443;-85
2020/12/21 06:59:12;;;;;;;3.47;1.73;;;6.60;99.90;;;;;;5056715;28;20539;-85
2020/12/21 07:01:40;;;;;;;13.07;2.90;;;6.60;99.90;;;;;;5066372;28;20455;-85
2020/12/21 07:04:11;;;;;;;4.43;1.83;;;6.60;99.90;;;;;;5075106;28;20538;-85
2020/12/21 07:06:38;;;;;;;6.43;1.47;;;6.50;99.90;;;;;;5070179;28;20463;-86
2020/12/21 07:09:06;;;;;;;5.97;2.40;;;6.60;99.90;;;;;;5056790;28;20494;-85
2020/12/21 07:11:37;;;;;;;5.97;1.63;;;6.70;99.90;;;;;;5056978;28;20495;-86
2020/12/21 07:14:03;;;;;;;8.23;2.10;;;6.70;99.90;;;;;;5056652;28;20531;-84
2020/12/21 07:16:30;;;;;;;8.97;1.97;;;6.70;99.90;;;;;;5054606;28;20553;-84
2020/12/21 07:18:56;;;;;;;5.53;1.63;;;6.60;99.90;;;;;;5055966;28;20482;-87
2020/12/21 07:21:22;;;;;;;3.57;1.77;;;6.70;99.90;;;;;;5046039;28;20469;-89
2020/12/21 07:23:50;;;;;;;6.07;2.03;;;6.70;99.90;;;;;;5060094;28;20479;-87
2020/12/21 07:26:35;;;;;;;8.73;1.97;;;6.70;99.90;;;;;;5065846;28;20923;-87
2020/12/21 07:29:10;;;;;;;10.00;5.20;;;6.70;99.90;;;;;;5067435;28;20457;-87
2020/12/21 07:31:37;;;;;;;5.30;2.00;;;6.70;99.90;;;;;;5060060;28;20570;-93
2020/12/21 07:34:03;;;;;;;6.90;2.23;;;6.70;99.90;;;;;;5062125;28;20455;-87
2020/12/21 07:36:34;;;;;;;6.40;1.63;;;6.60;99.90;;;;;;5066994;28;20536;-86
2020/12/21 07:39:07;;;;;;;4.20;1.70;;;6.60;99.90;;;;;;5058157;28;20558;-87
2020/12/21 07:41:36;;;;;;;4.33;1.70;;;6.60;99.90;;;;;;5051558;28;20447;-86
2020/12/21 07:44:06;;;;;;;8.13;1.60;;;6.60;99.90;;;;;;5056413;28;20455;-86
2020/12/21 07:46:44;;;;;;;4.63;1.57;;;6.70;99.90;;;;;;5056503;28;20444;-87
2020/12/21 07:49:12;;;;;;;6.40;2.13;;;6.70;99.90;;;;;;5056548;28;20449;-87
2020/12/21 07:51:42;;;;;;;11.70;2.10;;;6.70;99.90;;;;;;5055473;28;20574;-90
2020/12/21 07:54:11;;;;;;;4.10;1.90;;;6.80;99.90;;;;;;5056392;28;20448;-87
2020/12/21 07:56:38;;;;;;;8.27;2.40;;;6.80;99.90;;;;;;5055591;28;20442;-89
2020/12/21 07:59:16;;;;;;;6.83;1.93;;;6.80;99.90;;;;;;5055782;28;20452;-87
2020/12/21 08:01:43;;;;;;;6.40;2.13;;;6.80;99.90;;;;;;5035259;28;20921;-87
2020/12/21 08:04:17;;;;;;;8.13;3.70;;;6.80;99.90;;;;;;5035827;28;20784;-87
2020/12/21 08:06:45;;;;;;;6.13;2.10;;;6.90;99.90;;;;;;5067994;28;20450;-87
2020/12/21 08:09:11;;;;;;;7.10;2.10;;;7.00;99.90;;;;;;5074673;28;20442;-86
2020/12/21 08:11:39;;;;;;;6.17;2.07;;;7.10;99.90;;;;;;5053409;28;20549;-89
2020/12/21 08:14:08;;;;;;;5.23;1.93;;;7.10;99.90;;;;;;5055414;28;20459;-86
2020/12/21 08:16:34;;;;;;;7.00;2.33;;;7.10;99.90;;;;;;5042549;28;20448;-86
2020/12/21 08:19:01;;;;;;;8.77;1.90;;;7.10;99.90;;;;;;5066493;28;20474;-86
2020/12/21 08:21:28;;;;;;;6.47;2.20;;;7.20;99.90;;;;;;5053084;28;20464;-87
2020/12/21 08:23:57;;;;;;;6.13;1.97;;;7.30;99.90;;;;;;5050386;28;20779;-87
2020/12/21 08:26:24;;;;;;;5.47;2.00;;;7.30;99.90;;;;;;5053360;28;20444;-87
2020/12/21 08:28:52;;;;;;;4.67;2.13;;;7.40;99.90;;;;;;5052394;28;20915;-86
2020/12/21 08:31:20;;;;;;;8.13;2.20;;;7.40;99.90;;;;;;5054285;28;20483;-86
2020/12/21 08:33:58;;;;;;;4.77;1.60;;;7.50;99.90;;;;;;5053709;28;20596;-86
2020/12/21 08:36:28;;;;;;;10.33;3.37;;;7.50;99.90;;;;;;5053814;28;20519;-88
2020/12/21 08:39:07;;;;;;;11.70;2.17;;;7.60;99.90;;;;;;5049541;28;20923;-85
2020/12/21 08:41:42;;;;;;;8.20;1.93;;;7.70;99.90;;;;;;5049361;28;20534;-84
2020/12/21 08:44:15;;;;;;;7.37;2.23;;;7.80;99.90;;;;;;5053314;28;20439;-85
2020/12/21 08:46:44;;;;;;;5.87;2.30;;;7.80;99.90;;;;;;5052642;28;20987;-86
2020/12/21 08:49:11;;;;;;;4.30;1.80;;;7.80;99.90;;;;;;5052740;28;20546;-88
2020/12/21 08:51:38;;;;;;;4.57;1.90;;;7.90;99.90;;;;;;5052969;28;20498;-90
2020/12/21 08:54:05;;;;;;;6.13;1.87;;;7.90;99.90;;;;;;5049368;28;20447;-84
2020/12/21 08:56:33;;;;;;;4.80;1.43;;;8.00;99.90;;;;;;5053622;28;20467;-86
2020/12/21 08:59:00;;;;;;;4.77;2.23;;;8.10;99.90;;;;;;5053233;28;20482;-84
2020/12/21 09:01:29;;;;;;;7.50;2.00;;;8.10;99.90;;;;;;5052942;28;20546;-85
2020/12/21 09:03:55;;;;;;;4.30;1.60;;;8.20;99.90;;;;;;5052646;28;20506;-84
2020/12/21 09:06:23;;;;;;;7.40;2.37;;;8.20;99.90;;;;;;5053379;28;20451;-84
2020/12/21 09:08:50;;;;;;;8.60;2.00;;;8.30;99.90;;;;;;5053269;28;20444;-85
2020/12/21 09:11:20;;;;;;;11.93;2.73;;;8.30;99.90;;;;;;5053469;28;20448;-85
2020/12/21 09:13:47;;;;;;;5.33;2.07;;;8.40;99.90;;;;;;5048052;28;20447;-85
2020/12/21 09:16:19;;;;;;;5.10;2.07;;;8.40;99.90;;;;;;5042623;28;20949;-89
2020/12/21 09:18:46;;;;;;;7.97;2.10;;;8.50;99.90;;;;;;5050870;28;20452;-86
2020/12/21 09:21:18;;;;;;;9.30;3.27;;;8.50;99.90;;;;;;5050078;28;20464;-87
2020/12/21 09:23:48;;;;;;;12.80;1.83;;;8.50;99.90;;;;;;5060418;28;20477;-86
2020/12/21 09:26:15;;;;;;;6.13;3.13;;;8.50;99.90;;;;;;5048191;28;20455;-88
2020/12/21 09:28:41;;;;;;;8.70;2.10;;;8.60;99.90;;;;;;5050006;28;20538;-87
2020/12/21 09:31:12;;;;;;;5.20;2.20;;;8.60;99.90;;;;;;5053733;28;20460;-86
2020/12/21 09:33:39;;;;;;;5.47;1.77;;;8.70;99.90;;;;;;5059577;28;20714;-86
2020/12/21 09:36:07;;;;;;;6.63;2.20;;;8.70;99.90;;;;;;5056728;28;20584;-84
2020/12/21 09:38:33;;;;;;;6.70;2.40;;;8.60;99.90;;;;;;5065150;28;20462;-85
2020/12/21 09:40:59;;;;;;;5.30;2.00;;;8.70;99.90;;;;;;5058406;28;20601;-84
2020/12/21 09:43:26;;;;;;;7.97;1.93;;;8.70;99.90;;;;;;5053095;28;20513;-84
2020/12/21 09:45:52;;;;;;;6.97;2.60;;;8.80;99.90;;;;;;5060627;28;20539;-85
2020/12/21 09:48:18;;;;;;;8.27;2.37;;;8.80;99.90;;;;;;5067767;28;20444;-85
2020/12/21 09:50:45;;;;;;;4.20;1.70;;;8.90;99.90;;;;;;5066607;28;20479;-85
2020/12/21 09:53:12;;;;;;;7.53;2.60;;;8.90;99.90;;;;;;5059861;28;20490;-84
2020/12/21 09:55:38;;;;;;;8.83;2.20;;;9.00;99.90;;;;;;5056563;28;20513;-88
2020/12/21 09:58:05;;;;;;;3.90;1.80;;;9.00;99.90;;;;;;5053730;28;20452;-84
2020/12/21 10:00:31;;;;;;;4.77;2.23;;;8.90;99.90;;;;;;5053372;28;20598;-85
2020/12/21 10:02:57;;;;;;;8.23;2.63;;;9.00;99.90;;;;;;5052123;28;20655;-85
2020/12/21 10:05:24;;;;;;;6.27;2.10;;;9.00;99.90;;;;;;5067220;28;20447;-86
2020/12/21 10:07:50;;;;;;;7.13;2.30;;;9.00;99.90;;;;;;5067795;28;20459;-84
2020/12/21 10:10:17;;;;;;;8.67;4.10;;;9.10;99.90;;;;;;5053140;28;20469;-84
2020/12/21 10:12:44;;;;;;;4.00;1.77;;;9.10;99.90;;;;;;5064432;28;20510;-86
2020/12/21 10:15:10;;;;;;;6.30;2.00;;;9.20;99.90;;;;;;5076362;28;20543;-85
2020/12/21 10:17:38;;;;;;;6.03;1.80;;;9.20;99.90;;;;;;5061016;28;20549;-87
2020/12/21 10:20:05;;;;;;;8.17;2.03;;;9.40;99.90;;;;;;5062762;28;20448;-84
2020/12/21 10:22:31;;;;;;;5.83;2.10;;;9.40;99.90;;;;;;5052312;28;20828;-85
2020/12/21 10:24:57;;;;;;;7.23;2.20;;;9.60;99.90;;;;;;5049164;28;20718;-85
2020/12/21 10:27:25;;;;;;;10.10;3.10;;;9.70;99.90;;;;;;5054976;28;20447;-85
2020/12/21 10:29:51;;;;;;;9.53;1.80;;;9.70;99.90;;;;;;5055991;28;20792;-84
2020/12/21 10:32:17;;;;;;;5.40;2.00;;;9.80;99.90;;;;;;5046255;28;20583;-86
2020/12/21 10:34:44;;;;;;;5.27;2.73;;;9.60;99.90;;;;;;5057934;28;20907;-84
2020/12/21 10:37:10;;;;;;;6.80;2.30;;;9.80;99.90;;;;;;5055033;28;20466;-88
2020/12/21 10:39:37;;;;;;;4.00;1.63;;;9.90;99.90;;;;;;5055824;28;20458;-85
2020/12/21 10:42:05;;;;;;;4.07;1.73;;;9.90;99.90;;;;;;5061606;28;20488;-86
2020/12/21 10:44:33;;;;;;;4.57;2.30;;;10.00;99.90;;;;;;5058204;28;20448;-85
2020/12/21 10:46:59;;;;;;;7.73;2.13;;;9.90;99.90;;;;;;5047684;28;20827;-84
2020/12/21 10:49:26;;;;;;;6.50;1.90;;;9.90;99.90;;;;;;5055989;28;20915;-86
2020/12/21 10:51:52;;;;;;;6.30;1.67;;;9.60;99.90;;;;;;5055875;28;20586;-86
2020/12/21 10:54:19;;;;;;;5.27;2.60;;;9.60;99.90;;;;;;5055844;28;20947;-85
2020/12/21 10:56:45;;;;;;;4.43;1.80;;;9.70;99.90;;;;;;5071934;28;20542;-86
2020/12/21 10:59:11;;;;;;;4.97;1.70;;;9.80;99.90;;;;;;5058540;28;20452;-84
2020/12/21 11:01:45;;;;;;;7.63;2.37;;;9.90;99.90;;;;;;5056328;28;20629;-85
2020/12/21 11:04:12;;;;;;;7.20;1.80;;;9.90;99.90;;;;;;5056207;28;20451;-86
2020/12/21 11:06:41;;;;;;;4.93;1.73;;;9.90;99.90;;;;;;5047708;28;20534;-84
2020/12/21 11:09:07;;;;;;;9.50;1.73;;;10.10;99.90;;;;;;5055459;28;20458;-86
2020/12/21 11:11:34;;;;;;;8.53;1.80;;;10.20;99.90;;;;;;5055508;28;20574;-85
2020/12/21 11:14:01;;;;;;;6.20;2.17;;;10.20;99.90;;;;;;5055956;28;20463;-85
2020/12/21 11:16:31;;;;;;;7.10;2.00;;;10.20;99.90;;;;;;5055004;28;20517;-84
2020/12/21 11:18:58;;;;;;;7.40;2.13;;;10.30;99.90;;;;;;5054783;28;20804;-85
2020/12/21 11:21:25;;;;;;;5.53;2.17;;;10.30;99.90;;;;;;5053829;28;20456;-83
2020/12/21 11:23:52;;;;;;;8.20;2.30;;;10.30;99.90;;;;;;5055508;28;20443;-83
2020/12/21 11:26:19;;;;;;;7.43;2.73;;;10.20;99.90;;;;;;5055359;28;20448;-85
2020/12/21 11:28:47;;;;;;;9.77;1.80;;;10.10;99.90;;;;;;5055671;28;20916;-86
2020/12/21 11:31:16;;;;;;;7.50;2.37;;;10.00;99.90;;;;;;5048460;28;20504;-85
2020/12/21 11:33:43;;;;;;;4.20;2.17;;;10.00;99.90;;;;;;5058116;28;20978;-87
2020/12/21 11:36:10;;;;;;;6.50;1.97;;;10.00;99.90;;;;;;5065226;28;20440;-85
2020/12/21 11:38:41;;;;;;;10.50;2.80;;;10.10;99.90;;;;;;5054119;28;20542;-86
2020/12/21 11:41:07;;;;;;;6.53;1.80;;;10.10;99.90;;;;;;5057617;28;20480;-85
2020/12/21 11:43:33;;;;;;;4.67;1.93;;;10.20;99.90;;;;;;5049895;28;20456;-84
2020/12/21 11:46:00;;;;;;;5.93;1.83;;;10.20;99.90;;;;;;5053880;28;20492;-86
2020/12/21 11:48:26;;;;;;;8.87;1.80;;;10.30;99.90;;;;;;5057746;28;20510;-86
2020/12/21 11:50:53;;;;;;;4.53;2.10;;;10.40;99.90;;;;;;5051240;28;20468;-83
2020/12/21 11:53:20;;;;;;;5.20;2.13;;;10.60;99.90;;;;;;5052490;28;20484;-82
2020/12/21 11:55:46;;;;;;;6.77;3.17;;;10.70;99.90;;;;;;5053865;28;20547;-85
2020/12/21 11:58:13;;;;;;;4.33;1.80;;;11.10;99.90;;;;;;5053907;28;20525;-86
2020/12/21 12:00:40;;;;;;;7.20;2.30;;;11.10;99.90;;;;;;5054208;28;20494;-89
2020/12/21 12:03:06;;;;;;;6.77;2.20;;;11.30;99.90;;;;;;5054642;28;20456;-85
2020/12/21 12:05:32;;;;;;;3.37;1.77;;;11.30;99.90;;;;;;5048125;28;20484;-85
2020/12/21 12:07:58;;;;;;;5.17;2.10;;;11.40;99.90;;;;;;5054673;28;20447;-86
2020/12/21 12:10:26;;;;;;;5.50;1.77;;;11.40;99.90;;;;;;5054744;28;20527;-86
2020/12/21 12:12:52;;;;;;;6.20;2.13;;;11.40;99.90;;;;;;5054482;28;20479;-86
2020/12/21 12:15:18;;;;;;;7.47;3.10;;;11.40;99.90;;;;;;5050198;28;20532;-86
2020/12/21 12:17:45;;;;;;;3.47;1.70;;;11.40;99.90;;;;;;5047889;28;20487;-86
2020/12/21 12:20:12;;;;;;;8.33;2.17;;;11.50;99.90;;;;;;5054648;28;20492;-85
2020/12/21 12:22:41;;;;;;;4.77;2.40;;;11.30;99.90;;;;;;5054745;28;20538;-85
2020/12/21 12:25:08;;;;;;;6.20;1.80;;;11.20;99.90;;;;;;5051407;28;20486;-85
2020/12/21 12:27:35;;;;;;;5.30;1.80;;;11.10;99.90;;;;;;5049827;28;20779;-86
2020/12/21 12:30:01;;;;;;;6.83;2.17;;;11.00;99.90;;;;;;5041461;28;20464;-85
2020/12/21 12:32:28;;;;;;;4.60;2.07;;;10.80;99.90;;;;;;5035094;28;20650;-85
2020/12/21 12:34:54;;;;;;;8.03;2.20;;;10.70;99.90;;;;;;5053641;28;20452;-87
2020/12/21 12:37:20;;;;;;;8.00;2.83;;;10.60;99.90;;;;;;5038619;28;20829;-85
2020/12/21 12:39:47;;;;;;;9.83;2.90;;;10.50;99.90;;;;;;5058798;28;20467;-85
2020/12/21 12:42:13;;;;;;;4.50;1.77;;;10.40;99.90;;;;;;5056697;28;20458;-84
2020/12/21 12:44:43;;;;;;;5.57;2.50;;;10.30;99.90;;;;;;5049753;28;20483;-85
2020/12/21 12:47:10;;;;;;;6.50;2.60;;;10.30;99.90;;;;;;5058633;28;20452;-84
2020/12/21 12:49:36;;;;;;;3.83;2.23;;;10.30;99.90;;;;;;5070856;28;21548;-86
2020/12/21 12:52:02;;;;;;;4.80;2.40;;;10.20;99.90;;;;;;5066987;28;20566;-84
2020/12/21 12:54:29;;;;;;;4.23;2.30;;;10.10;99.90;;;;;;5078221;28;20476;-86
2020/12/21 12:56:56;;;;;;;8.33;3.40;;;10.00;99.90;;;;;;5056332;28;20461;-84
2020/12/21 12:59:22;;;;;;;4.13;2.70;;;10.00;99.90;;;;;;5051438;28;20487;-85
2020/12/21 13:01:50;;;;;;;5.70;3.10;;;9.90;99.90;;;;;;5056247;28;20464;-85
2020/12/21 13:04:24;;;;;;;4.03;2.30;;;9.90;99.90;;;;;;5052047;28;20488;-84
2020/12/21 13:06:51;;;;;;;15.40;7.37;;;9.80;99.90;;;;;;5054598;28;20456;-84
2020/12/21 13:09:20;;;;;;;7.00;3.03;;;9.80;99.90;;;;;;5052374;28;20456;-84
2020/12/21 13:11:47;;;;;;;6.77;3.03;;;9.80;99.90;;;;;;5052919;28;20487;-85
2020/12/21 13:14:20;;;;;;;5.30;2.70;;;9.80;99.90;;;;;;5048651;28;20452;-84
2020/12/21 13:16:46;;;;;;;6.17;3.33;;;9.70;99.90;;;;;;5057071;28;20424;-87
2020/12/21 13:19:17;;;;;;;5.80;2.93;;;9.70;99.90;;;;;;5058634;28;20511;-87
2020/12/21 13:21:47;;;;;;;8.40;3.10;;;9.60;99.90;;;;;;5049594;28;20597;-87
2020/12/21 13:24:15;;;;;;;8.30;3.47;;;9.50;99.90;;;;;;5058704;28;20487;-89
2020/12/21 13:26:51;;;;;;;6.73;3.80;;;9.40;99.90;;;;;;5051922;28;20454;-92
2020/12/21 13:29:19;;;;;;;4.67;3.00;;;9.30;99.90;;;;;;5058532;28;20481;-87
2020/12/21 13:31:46;;;;;;;7.60;3.63;;;9.10;99.90;;;;;;5044300;28;20492;-87
2020/12/21 13:34:15;;;;;;;7.50;3.53;;;9.10;99.90;;;;;;5034845;28;20459;-87
2020/12/21 13:36:44;;;;;;;7.53;3.50;;;9.00;99.90;;;;;;5040740;28;20536;-87
2020/12/21 13:39:11;;;;;;;6.07;3.30;;;8.90;99.90;;;;;;5037122;28;20844;-87
2020/12/21 13:41:38;;;;;;;6.13;3.37;;;8.90;99.90;;;;;;5037827;28;20456;-86
2020/12/21 13:44:04;;;;;;;6.37;3.57;;;8.80;99.90;;;;;;5061527;28;20588;-85
2020/12/21 13:46:31;;;;;;;6.67;3.50;;;8.80;99.90;;;;;;5064802;28;20443;-86
2020/12/21 13:48:57;;;;;;;6.67;4.57;;;8.80;99.90;;;;;;5065774;28;20512;-85
2020/12/21 13:51:26;;;;;;;8.17;3.63;;;8.80;99.90;;;;;;5059640;28;20479;-86
2020/12/21 13:53:53;;;;;;;6.47;3.50;;;8.80;99.90;;;;;;5044773;28;20451;-84
2020/12/21 13:56:19;;;;;;;6.97;4.00;;;8.80;99.90;;;;;;5056329;28;20445;-86
2020/12/21 13:58:45;;;;;;;4.63;3.33;;;8.70;99.90;;;;;;5054708;28;20471;-86
2020/12/21 14:01:14;;;;;;;7.33;3.90;;;8.80;99.90;;;;;;5067368;28;20452;-86
2020/12/21 14:03:41;;;;;;;4.93;3.13;;;8.80;99.90;;;;;;5066970;28;20452;-87
2020/12/21 14:06:07;;;;;;;4.67;3.10;;;8.70;99.90;;;;;;5069629;28;20451;-89
2020/12/21 14:08:35;;;;;;;5.77;3.53;;;8.70;99.90;;;;;;5074347;28;20502;-89
2020/12/21 14:11:02;;;;;;;5.07;2.90;;;8.80;99.90;;;;;;5072402;28;20447;-86
2020/12/21 14:13:29;;;;;;;5.80;2.93;;;8.70;99.90;;;;;;5060029;28;20574;-86
2020/12/21 14:15:55;;;;;;;6.23;3.10;;;8.70;99.90;;;;;;5058888;28;20447;-84
2020/12/21 14:18:24;;;;;;;5.20;3.17;;;8.70;99.90;;;;;;5062971;28;20517;-87
2020/12/21 14:20:50;;;;;;;5.77;3.43;;;8.70;99.90;;;;;;5059378;28;20486;-86
2020/12/21 14:23:16;;;;;;;8.03;3.47;;;8.70;99.90;;;;;;5053246;28;20462;-87
2020/12/21 14:25:46;;;;;;;9.60;3.90;;;8.70;99.90;;;;;;5052806;28;20530;-85
2020/12/21 14:28:12;;;;;;;4.90;2.90;;;8.70;99.90;;;;;;5045263;28;20540;-86
2020/12/21 14:30:39;;;;;;;8.53;3.10;;;8.70;99.90;;;;;;5053544;28;21000;-86
2020/12/21 14:33:05;;;;;;;4.40;2.60;;;8.80;99.90;;;;;;5056064;28;20981;-86
2020/12/21 14:35:31;;;;;;;4.60;2.70;;;8.80;99.90;;;;;;5065326;28;20479;-88
2020/12/21 14:37:58;;;;;;;6.10;3.30;;;8.80;99.90;;;;;;5050847;28;20548;-87
2020/12/21 14:40:26;;;;;;;5.73;2.90;;;8.70;99.90;;;;;;5056456;28;20452;-86
2020/12/21 14:42:54;;;;;;;5.20;3.13;;;8.70;99.90;;;;;;5062347;28;20481;-87
2020/12/21 14:45:21;;;;;;;4.90;2.70;;;8.70;99.90;;;;;;5062363;28;20526;-87
2020/12/21 14:47:49;;;;;;;5.87;3.30;;;8.70;99.90;;;;;;5051242;28;20453;-88
2020/12/21 14:50:18;;;;;;;7.10;3.30;;;8.70;99.90;;;;;;5052483;28;20501;-88
2020/12/21 14:52:53;;;;;;;5.23;2.73;;;8.60;99.90;;;;;;5068789;28;20479;-88